sensor_id;sensor_type;location;lat;lon;timestamp;P1;durP1;ratioP1;P2;durP2;ratioP2
28988;SDS011;16089;59.952;10.818;2023-08-06T00:01:21;12.73;;;3.70;;
28988;SDS011;16089;59.952;10.818;2023-08-06T00:03:48;9.15;;;3.55;;
28988;SDS011;16089;59.952;10.818;2023-08-06T00:06:14;16.55;;;4.18;;
28988;SDS011;16089;59.952;10.818;2023-08-06T00:08:42;10.68;;;2.83;;
28988;SDS011;16089;59.952;10.818;2023-08-06T00:11:08;12.38;;;3.70;;
28988;SDS011;16089;59.952;10.818;2023-08-06T00:13:34;13.68;;;3.40;;
28988;SDS011;16089;59.952;10.818;2023-08-06T00:16:10;10.18;;;3.50;;
28988;SDS011;16089;59.952;10.818;2023-08-06T00:18:36;8.88;;;2.90;;
28988;SDS011;16089;59.952;10.818;2023-08-06T00:21:03;8.07;;;2.95;;
28988;SDS011;16089;59.952;10.818;2023-08-06T00:23:29;8.80;;;2.83;;
28988;SDS011;16089;59.952;10.818;2023-08-06T00:25:57;9.85;;;3.85;;
28988;SDS011;16089;59.952;10.818;2023-08-06T00:28:23;9.30;;;3.05;;
28988;SDS011;16089;59.952;10.818;2023-08-06T00:30:52;9.00;;;3.20;;
28988;SDS011;16089;59.952;10.818;2023-08-06T00:33:18;11.48;;;3.50;;
28988;SDS011;16089;59.952;10.818;2023-08-06T00:35:44;11.38;;;3.08;;
28988;SDS011;16089;59.952;10.818;2023-08-06T00:38:11;6.70;;;2.85;;
28988;SDS011;16089;59.952;10.818;2023-08-06T00:40:38;9.30;;;3.45;;
28988;SDS011;16089;59.952;10.818;2023-08-06T00:43:05;6.97;;;2.90;;
28988;SDS011;16089;59.952;10.818;2023-08-06T00:45:33;12.52;;;3.42;;
28988;SDS011;16089;59.952;10.818;2023-08-06T00:48:00;9.40;;;3.17;;
28988;SDS011;16089;59.952;10.818;2023-08-06T00:50:26;11.98;;;3.15;;
28988;SDS011;16089;59.952;10.818;2023-08-06T00:52:53;9.85;;;3.20;;
28988;SDS011;16089;59.952;10.818;2023-08-06T00:55:19;11.07;;;3.08;;
28988;SDS011;16089;59.952;10.818;2023-08-06T00:57:46;9.35;;;2.92;;
28988;SDS011;16089;59.952;10.818;2023-08-06T01:00:14;10.32;;;3.50;;
28988;SDS011;16089;59.952;10.818;2023-08-06T01:02:40;10.55;;;3.20;;
28988;SDS011;16089;59.952;10.818;2023-08-06T01:05:06;11.88;;;3.50;;
28988;SDS011;16089;59.952;10.818;2023-08-06T01:07:43;14.15;;;4.00;;
28988;SDS011;16089;59.952;10.818;2023-08-06T01:10:16;9.45;;;3.17;;
28988;SDS011;16089;59.952;10.818;2023-08-06T01:12:46;10.45;;;3.65;;
28988;SDS011;16089;59.952;10.818;2023-08-06T01:15:16;14.80;;;3.20;;
28988;SDS011;16089;59.952;10.818;2023-08-06T01:17:44;10.73;;;3.63;;
28988;SDS011;16089;59.952;10.818;2023-08-06T01:20:11;11.32;;;3.58;;
28988;SDS011;16089;59.952;10.818;2023-08-06T01:22:38;14.93;;;3.60;;
28988;SDS011;16089;59.952;10.818;2023-08-06T01:25:05;14.95;;;4.05;;
28988;SDS011;16089;59.952;10.818;2023-08-06T01:27:33;9.88;;;3.65;;
28988;SDS011;16089;59.952;10.818;2023-08-06T01:30:03;16.45;;;3.60;;
28988;SDS011;16089;59.952;10.818;2023-08-06T01:32:31;9.82;;;3.25;;
28988;SDS011;16089;59.952;10.818;2023-08-06T01:34:58;11.75;;;3.40;;
28988;SDS011;16089;59.952;10.818;2023-08-06T01:37:26;10.98;;;3.03;;
28988;SDS011;16089;59.952;10.818;2023-08-06T01:39:55;16.27;;;3.45;;
28988;SDS011;16089;59.952;10.818;2023-08-06T01:42:21;12.13;;;3.45;;
28988;SDS011;16089;59.952;10.818;2023-08-06T01:44:47;9.77;;;3.28;;
28988;SDS011;16089;59.952;10.818;2023-08-06T01:47:14;9.77;;;3.40;;
28988;SDS011;16089;59.952;10.818;2023-08-06T01:49:40;8.38;;;3.38;;
28988;SDS011;16089;59.952;10.818;2023-08-06T01:52:07;9.82;;;3.28;;
28988;SDS011;16089;59.952;10.818;2023-08-06T01:54:33;12.90;;;3.00;;
28988;SDS011;16089;59.952;10.818;2023-08-06T01:57:01;9.23;;;3.22;;
28988;SDS011;16089;59.952;10.818;2023-08-06T01:59:27;10.63;;;3.70;;
28988;SDS011;16089;59.952;10.818;2023-08-06T02:01:53;10.48;;;2.97;;
28988;SDS011;16089;59.952;10.818;2023-08-06T02:04:20;9.75;;;3.28;;
28988;SDS011;16089;59.952;10.818;2023-08-06T02:06:46;9.75;;;2.92;;
28988;SDS011;16089;59.952;10.818;2023-08-06T02:09:12;9.20;;;3.13;;
28988;SDS011;16089;59.952;10.818;2023-08-06T02:11:39;11.85;;;2.92;;
28988;SDS011;16089;59.952;10.818;2023-08-06T02:14:06;10.98;;;3.05;;
28988;SDS011;16089;59.952;10.818;2023-08-06T02:16:33;8.52;;;3.42;;
28988;SDS011;16089;59.952;10.818;2023-08-06T02:18:59;11.18;;;3.10;;
28988;SDS011;16089;59.952;10.818;2023-08-06T02:21:25;8.70;;;3.30;;
28988;SDS011;16089;59.952;10.818;2023-08-06T02:23:52;12.27;;;3.33;;
28988;SDS011;16089;59.952;10.818;2023-08-06T02:26:18;8.32;;;3.60;;
28988;SDS011;16089;59.952;10.818;2023-08-06T02:28:44;10.35;;;3.13;;
28988;SDS011;16089;59.952;10.818;2023-08-06T02:31:12;6.90;;;2.60;;
28988;SDS011;16089;59.952;10.818;2023-08-06T02:33:38;12.52;;;3.50;;
28988;SDS011;16089;59.952;10.818;2023-08-06T02:36:05;12.93;;;3.75;;
28988;SDS011;16089;59.952;10.818;2023-08-06T02:38:31;10.70;;;3.42;;
28988;SDS011;16089;59.952;10.818;2023-08-06T02:40:57;7.82;;;2.80;;
28988;SDS011;16089;59.952;10.818;2023-08-06T02:43:24;15.25;;;3.45;;
28988;SDS011;16089;59.952;10.818;2023-08-06T02:45:50;8.23;;;2.97;;
28988;SDS011;16089;59.952;10.818;2023-08-06T02:48:18;6.50;;;3.00;;
28988;SDS011;16089;59.952;10.818;2023-08-06T02:50:44;9.90;;;3.45;;
28988;SDS011;16089;59.952;10.818;2023-08-06T02:53:10;12.82;;;3.38;;
28988;SDS011;16089;59.952;10.818;2023-08-06T02:55:37;11.95;;;3.60;;
28988;SDS011;16089;59.952;10.818;2023-08-06T02:58:03;9.05;;;3.42;;
28988;SDS011;16089;59.952;10.818;2023-08-06T03:00:29;9.38;;;3.25;;
28988;SDS011;16089;59.952;10.818;2023-08-06T03:02:56;10.95;;;3.80;;
28988;SDS011;16089;59.952;10.818;2023-08-06T03:05:23;9.32;;;3.58;;
28988;SDS011;16089;59.952;10.818;2023-08-06T03:07:50;9.88;;;2.97;;
28988;SDS011;16089;59.952;10.818;2023-08-06T03:10:16;11.30;;;4.00;;
28988;SDS011;16089;59.952;10.818;2023-08-06T03:12:42;4.47;;;2.65;;
28988;SDS011;16089;59.952;10.818;2023-08-06T03:15:09;7.05;;;3.35;;
28988;SDS011;16089;59.952;10.818;2023-08-06T03:17:35;9.18;;;3.00;;
28988;SDS011;16089;59.952;10.818;2023-08-06T03:20:02;9.63;;;3.17;;
28988;SDS011;16089;59.952;10.818;2023-08-06T03:22:29;8.30;;;3.38;;
28988;SDS011;16089;59.952;10.818;2023-08-06T03:24:56;6.22;;;3.00;;
28988;SDS011;16089;59.952;10.818;2023-08-06T03:27:22;7.78;;;3.33;;
28988;SDS011;16089;59.952;10.818;2023-08-06T03:29:48;9.52;;;3.20;;
28988;SDS011;16089;59.952;10.818;2023-08-06T03:32:15;11.07;;;3.10;;
28988;SDS011;16089;59.952;10.818;2023-08-06T03:34:41;6.78;;;3.00;;
28988;SDS011;16089;59.952;10.818;2023-08-06T03:37:08;7.97;;;2.97;;
28988;SDS011;16089;59.952;10.818;2023-08-06T03:39:35;7.72;;;3.25;;
28988;SDS011;16089;59.952;10.818;2023-08-06T03:42:02;7.63;;;3.00;;
28988;SDS011;16089;59.952;10.818;2023-08-06T03:44:28;6.45;;;3.10;;
28988;SDS011;16089;59.952;10.818;2023-08-06T03:46:55;7.07;;;3.58;;
28988;SDS011;16089;59.952;10.818;2023-08-06T03:49:22;6.13;;;3.20;;
28988;SDS011;16089;59.952;10.818;2023-08-06T03:51:48;7.75;;;3.45;;
28988;SDS011;16089;59.952;10.818;2023-08-06T03:54:14;8.27;;;3.28;;
28988;SDS011;16089;59.952;10.818;2023-08-06T03:56:42;7.15;;;3.40;;
28988;SDS011;16089;59.952;10.818;2023-08-06T03:59:08;5.10;;;2.72;;
28988;SDS011;16089;59.952;10.818;2023-08-06T04:01:35;7.13;;;3.42;;
28988;SDS011;16089;59.952;10.818;2023-08-06T04:04:01;7.93;;;3.35;;
28988;SDS011;16089;59.952;10.818;2023-08-06T04:06:27;5.68;;;3.17;;
28988;SDS011;16089;59.952;10.818;2023-08-06T04:08:54;7.60;;;3.83;;
28988;SDS011;16089;59.952;10.818;2023-08-06T04:11:20;8.60;;;3.70;;
28988;SDS011;16089;59.952;10.818;2023-08-06T04:13:48;8.23;;;3.75;;
28988;SDS011;16089;59.952;10.818;2023-08-06T04:16:15;6.70;;;3.40;;
28988;SDS011;16089;59.952;10.818;2023-08-06T04:18:41;7.95;;;3.30;;
28988;SDS011;16089;59.952;10.818;2023-08-06T04:21:06;8.13;;;3.22;;
28988;SDS011;16089;59.952;10.818;2023-08-06T04:23:33;9.48;;;3.60;;
28988;SDS011;16089;59.952;10.818;2023-08-06T04:25:59;6.90;;;3.20;;
28988;SDS011;16089;59.952;10.818;2023-08-06T04:28:25;8.20;;;3.58;;
28988;SDS011;16089;59.952;10.818;2023-08-06T04:30:53;10.02;;;3.80;;
28988;SDS011;16089;59.952;10.818;2023-08-06T04:33:19;6.70;;;3.70;;
28988;SDS011;16089;59.952;10.818;2023-08-06T04:35:46;9.10;;;3.88;;
28988;SDS011;16089;59.952;10.818;2023-08-06T04:38:12;8.93;;;3.47;;
28988;SDS011;16089;59.952;10.818;2023-08-06T04:40:38;7.32;;;3.22;;
28988;SDS011;16089;59.952;10.818;2023-08-06T04:43:05;6.45;;;3.70;;
28988;SDS011;16089;59.952;10.818;2023-08-06T04:45:31;9.75;;;4.00;;
28988;SDS011;16089;59.952;10.818;2023-08-06T04:47:59;10.07;;;4.53;;
28988;SDS011;16089;59.952;10.818;2023-08-06T04:50:25;7.03;;;4.40;;
28988;SDS011;16089;59.952;10.818;2023-08-06T04:52:51;8.68;;;4.13;;
28988;SDS011;16089;59.952;10.818;2023-08-06T04:55:18;7.43;;;3.97;;
28988;SDS011;16089;59.952;10.818;2023-08-06T04:57:44;10.05;;;3.83;;
28988;SDS011;16089;59.952;10.818;2023-08-06T05:00:10;6.43;;;3.92;;
28988;SDS011;16089;59.952;10.818;2023-08-06T05:02:37;9.60;;;4.32;;
28988;SDS011;16089;59.952;10.818;2023-08-06T05:05:05;10.82;;;4.35;;
28988;SDS011;16089;59.952;10.818;2023-08-06T05:07:32;7.30;;;3.95;;
28988;SDS011;16089;59.952;10.818;2023-08-06T05:09:58;8.18;;;3.95;;
28988;SDS011;16089;59.952;10.818;2023-08-06T05:12:24;9.60;;;4.25;;
28988;SDS011;16089;59.952;10.818;2023-08-06T05:14:51;7.68;;;4.10;;
28988;SDS011;16089;59.952;10.818;2023-08-06T05:17:17;10.23;;;4.15;;
28988;SDS011;16089;59.952;10.818;2023-08-06T05:19:43;9.27;;;4.00;;
28988;SDS011;16089;59.952;10.818;2023-08-06T05:22:11;6.63;;;3.88;;
28988;SDS011;16089;59.952;10.818;2023-08-06T05:24:37;11.93;;;3.70;;
28988;SDS011;16089;59.952;10.818;2023-08-06T05:27:04;9.45;;;3.80;;
28988;SDS011;16089;59.952;10.818;2023-08-06T05:29:30;9.50;;;4.30;;
28988;SDS011;16089;59.952;10.818;2023-08-06T05:31:57;15.25;;;4.65;;
28988;SDS011;16089;59.952;10.818;2023-08-06T05:34:23;13.27;;;4.25;;
28988;SDS011;16089;59.952;10.818;2023-08-06T05:36:50;7.15;;;3.55;;
28988;SDS011;16089;59.952;10.818;2023-08-06T05:39:19;9.88;;;4.05;;
28988;SDS011;16089;59.952;10.818;2023-08-06T05:41:45;12.88;;;4.00;;
28988;SDS011;16089;59.952;10.818;2023-08-06T05:44:11;8.00;;;3.75;;
28988;SDS011;16089;59.952;10.818;2023-08-06T05:46:38;10.05;;;3.58;;
28988;SDS011;16089;59.952;10.818;2023-08-06T05:49:04;12.10;;;3.80;;
28988;SDS011;16089;59.952;10.818;2023-08-06T05:51:30;9.25;;;3.80;;
28988;SDS011;16089;59.952;10.818;2023-08-06T05:53:57;11.43;;;3.35;;
28988;SDS011;16089;59.952;10.818;2023-08-06T05:56:24;12.65;;;3.85;;
28988;SDS011;16089;59.952;10.818;2023-08-06T05:58:51;9.38;;;4.03;;
28988;SDS011;16089;59.952;10.818;2023-08-06T06:01:18;13.13;;;4.13;;
28988;SDS011;16089;59.952;10.818;2023-08-06T06:03:44;8.68;;;3.97;;
28988;SDS011;16089;59.952;10.818;2023-08-06T06:06:10;9.63;;;3.83;;
28988;SDS011;16089;59.952;10.818;2023-08-06T06:08:37;9.68;;;3.75;;
28988;SDS011;16089;59.952;10.818;2023-08-06T06:11:03;10.43;;;4.18;;
28988;SDS011;16089;59.952;10.818;2023-08-06T06:13:31;11.93;;;3.83;;
28988;SDS011;16089;59.952;10.818;2023-08-06T06:15:57;8.25;;;3.90;;
28988;SDS011;16089;59.952;10.818;2023-08-06T06:18:24;9.82;;;3.67;;
28988;SDS011;16089;59.952;10.818;2023-08-06T06:20:50;15.18;;;4.35;;
28988;SDS011;16089;59.952;10.818;2023-08-06T06:23:16;8.90;;;3.65;;
28988;SDS011;16089;59.952;10.818;2023-08-06T06:25:43;7.90;;;3.33;;
28988;SDS011;16089;59.952;10.818;2023-08-06T06:28:09;12.13;;;4.10;;
28988;SDS011;16089;59.952;10.818;2023-08-06T06:30:37;10.05;;;3.90;;
28988;SDS011;16089;59.952;10.818;2023-08-06T06:33:03;9.20;;;3.25;;
28988;SDS011;16089;59.952;10.818;2023-08-06T06:35:29;10.65;;;3.80;;
28988;SDS011;16089;59.952;10.818;2023-08-06T06:37:56;8.32;;;3.00;;
28988;SDS011;16089;59.952;10.818;2023-08-06T06:40:22;13.50;;;3.53;;
28988;SDS011;16089;59.952;10.818;2023-08-06T06:42:48;9.70;;;3.53;;
28988;SDS011;16089;59.952;10.818;2023-08-06T06:45:15;12.60;;;3.58;;
28988;SDS011;16089;59.952;10.818;2023-08-06T06:47:43;13.73;;;3.67;;
28988;SDS011;16089;59.952;10.818;2023-08-06T06:50:09;9.32;;;3.38;;
28988;SDS011;16089;59.952;10.818;2023-08-06T06:52:35;10.13;;;3.35;;
28988;SDS011;16089;59.952;10.818;2023-08-06T06:55:02;12.43;;;3.63;;
28988;SDS011;16089;59.952;10.818;2023-08-06T06:57:28;8.85;;;3.28;;
28988;SDS011;16089;59.952;10.818;2023-08-06T06:59:55;11.27;;;3.42;;
28988;SDS011;16089;59.952;10.818;2023-08-06T07:02:21;6.60;;;3.65;;
28988;SDS011;16089;59.952;10.818;2023-08-06T07:04:49;9.20;;;3.40;;
28988;SDS011;16089;59.952;10.818;2023-08-06T07:07:15;8.57;;;3.22;;
28988;SDS011;16089;59.952;10.818;2023-08-06T07:09:42;10.48;;;3.60;;
28988;SDS011;16089;59.952;10.818;2023-08-06T07:12:08;9.38;;;3.60;;
28988;SDS011;16089;59.952;10.818;2023-08-06T07:14:34;11.18;;;3.60;;
28988;SDS011;16089;59.952;10.818;2023-08-06T07:17:01;8.77;;;3.58;;
28988;SDS011;16089;59.952;10.818;2023-08-06T07:19:27;12.70;;;3.67;;
28988;SDS011;16089;59.952;10.818;2023-08-06T07:21:55;10.05;;;3.35;;
28988;SDS011;16089;59.952;10.818;2023-08-06T07:24:21;9.27;;;3.20;;
28988;SDS011;16089;59.952;10.818;2023-08-06T07:26:48;8.73;;;3.30;;
28988;SDS011;16089;59.952;10.818;2023-08-06T07:29:14;9.05;;;3.38;;
28988;SDS011;16089;59.952;10.818;2023-08-06T07:31:44;12.68;;;3.55;;
28988;SDS011;16089;59.952;10.818;2023-08-06T07:34:11;9.15;;;2.78;;
28988;SDS011;16089;59.952;10.818;2023-08-06T07:36:37;9.77;;;3.05;;
28988;SDS011;16089;59.952;10.818;2023-08-06T07:39:05;12.73;;;3.60;;
28988;SDS011;16089;59.952;10.818;2023-08-06T07:41:31;9.15;;;3.00;;
28988;SDS011;16089;59.952;10.818;2023-08-06T07:43:57;10.07;;;3.33;;
28988;SDS011;16089;59.952;10.818;2023-08-06T07:46:24;12.65;;;2.97;;
28988;SDS011;16089;59.952;10.818;2023-08-06T07:48:50;10.57;;;2.90;;
28988;SDS011;16089;59.952;10.818;2023-08-06T07:51:16;9.30;;;2.80;;
28988;SDS011;16089;59.952;10.818;2023-08-06T07:53:43;4.78;;;2.00;;
28988;SDS011;16089;59.952;10.818;2023-08-06T07:56:10;7.70;;;2.50;;
28988;SDS011;16089;59.952;10.818;2023-08-06T07:58:37;9.48;;;2.28;;
28988;SDS011;16089;59.952;10.818;2023-08-06T08:01:03;9.20;;;2.33;;
28988;SDS011;16089;59.952;10.818;2023-08-06T08:03:29;5.65;;;1.67;;
28988;SDS011;16089;59.952;10.818;2023-08-06T08:05:56;10.13;;;2.10;;
28988;SDS011;16089;59.952;10.818;2023-08-06T08:08:23;6.53;;;2.13;;
28988;SDS011;16089;59.952;10.818;2023-08-06T08:10:49;6.13;;;2.22;;
28988;SDS011;16089;59.952;10.818;2023-08-06T08:13:17;8.85;;;2.13;;
28988;SDS011;16089;59.952;10.818;2023-08-06T08:15:43;4.57;;;2.17;;
28988;SDS011;16089;59.952;10.818;2023-08-06T08:18:10;8.77;;;2.15;;
28988;SDS011;16089;59.952;10.818;2023-08-06T08:20:36;8.57;;;1.98;;
28988;SDS011;16089;59.952;10.818;2023-08-06T08:23:02;5.75;;;1.83;;
28988;SDS011;16089;59.952;10.818;2023-08-06T08:25:29;7.70;;;1.80;;
28988;SDS011;16089;59.952;10.818;2023-08-06T08:27:56;11.80;;;1.80;;
28988;SDS011;16089;59.952;10.818;2023-08-06T08:30:24;7.15;;;1.70;;
28988;SDS011;16089;59.952;10.818;2023-08-06T08:32:51;9.50;;;1.83;;
28988;SDS011;16089;59.952;10.818;2023-08-06T08:35:17;4.82;;;2.53;;
28988;SDS011;16089;59.952;10.818;2023-08-06T08:37:43;7.45;;;2.03;;
28988;SDS011;16089;59.952;10.818;2023-08-06T08:40:10;5.25;;;1.65;;
28988;SDS011;16089;59.952;10.818;2023-08-06T08:42:36;8.68;;;1.85;;
28988;SDS011;16089;59.952;10.818;2023-08-06T08:45:04;6.90;;;2.00;;
28988;SDS011;16089;59.952;10.818;2023-08-06T08:47:32;5.85;;;2.15;;
28988;SDS011;16089;59.952;10.818;2023-08-06T08:49:58;9.05;;;2.10;;
28988;SDS011;16089;59.952;10.818;2023-08-06T08:52:26;6.75;;;2.35;;
28988;SDS011;16089;59.952;10.818;2023-08-06T08:54:55;5.95;;;2.03;;
28988;SDS011;16089;59.952;10.818;2023-08-06T08:57:22;8.18;;;2.13;;
28988;SDS011;16089;59.952;10.818;2023-08-06T08:59:48;6.53;;;2.10;;
28988;SDS011;16089;59.952;10.818;2023-08-06T09:02:15;9.75;;;2.00;;
28988;SDS011;16089;59.952;10.818;2023-08-06T09:04:43;5.60;;;1.77;;
28988;SDS011;16089;59.952;10.818;2023-08-06T09:07:10;5.28;;;2.03;;
28988;SDS011;16089;59.952;10.818;2023-08-06T09:09:38;8.38;;;2.10;;
28988;SDS011;16089;59.952;10.818;2023-08-06T09:12:06;6.68;;;2.20;;
28988;SDS011;16089;59.952;10.818;2023-08-06T09:14:35;5.35;;;2.08;;
28988;SDS011;16089;59.952;10.818;2023-08-06T09:17:01;6.32;;;1.85;;
28988;SDS011;16089;59.952;10.818;2023-08-06T09:19:29;6.10;;;1.73;;
28988;SDS011;16089;59.952;10.818;2023-08-06T09:21:57;9.52;;;2.30;;
28988;SDS011;16089;59.952;10.818;2023-08-06T09:24:23;6.60;;;1.63;;
28988;SDS011;16089;59.952;10.818;2023-08-06T09:26:51;6.93;;;1.73;;
28988;SDS011;16089;59.952;10.818;2023-08-06T09:29:17;8.63;;;2.33;;
28988;SDS011;16089;59.952;10.818;2023-08-06T09:31:44;3.55;;;1.67;;
28988;SDS011;16089;59.952;10.818;2023-08-06T09:34:11;5.13;;;1.80;;
28988;SDS011;16089;59.952;10.818;2023-08-06T09:36:39;6.03;;;1.70;;
28988;SDS011;16089;59.952;10.818;2023-08-06T09:39:13;5.93;;;1.80;;
28988;SDS011;16089;59.952;10.818;2023-08-06T09:41:39;4.97;;;1.63;;
28988;SDS011;16089;59.952;10.818;2023-08-06T09:44:06;6.60;;;2.03;;
28988;SDS011;16089;59.952;10.818;2023-08-06T09:46:39;8.57;;;2.17;;
28988;SDS011;16089;59.952;10.818;2023-08-06T09:49:06;6.85;;;2.20;;
28988;SDS011;16089;59.952;10.818;2023-08-06T09:51:33;7.93;;;1.75;;
28988;SDS011;16089;59.952;10.818;2023-08-06T09:53:59;4.80;;;1.80;;
28988;SDS011;16089;59.952;10.818;2023-08-06T09:56:28;6.70;;;1.90;;
28988;SDS011;16089;59.952;10.818;2023-08-06T09:58:57;7.53;;;2.22;;
28988;SDS011;16089;59.952;10.818;2023-08-06T10:01:24;5.70;;;1.73;;
28988;SDS011;16089;59.952;10.818;2023-08-06T10:03:51;5.35;;;1.90;;
28988;SDS011;16089;59.952;10.818;2023-08-06T10:06:18;4.78;;;1.50;;
28988;SDS011;16089;59.952;10.818;2023-08-06T10:08:45;4.15;;;1.35;;
28988;SDS011;16089;59.952;10.818;2023-08-06T10:11:12;7.53;;;1.70;;
28988;SDS011;16089;59.952;10.818;2023-08-06T10:13:41;6.68;;;1.48;;
28988;SDS011;16089;59.952;10.818;2023-08-06T10:16:07;6.38;;;1.58;;
28988;SDS011;16089;59.952;10.818;2023-08-06T10:18:33;5.35;;;1.70;;
28988;SDS011;16089;59.952;10.818;2023-08-06T10:21:01;8.60;;;1.30;;
28988;SDS011;16089;59.952;10.818;2023-08-06T10:23:32;6.35;;;1.60;;
28988;SDS011;16089;59.952;10.818;2023-08-06T10:26:02;4.63;;;1.27;;
28988;SDS011;16089;59.952;10.818;2023-08-06T10:28:33;4.50;;;1.60;;
28988;SDS011;16089;59.952;10.818;2023-08-06T10:31:01;6.78;;;1.63;;
28988;SDS011;16089;59.952;10.818;2023-08-06T10:33:39;6.35;;;1.63;;
28988;SDS011;16089;59.952;10.818;2023-08-06T10:36:06;6.43;;;1.60;;
28988;SDS011;16089;59.952;10.818;2023-08-06T10:38:34;7.53;;;1.60;;
28988;SDS011;16089;59.952;10.818;2023-08-06T10:41:02;5.70;;;1.63;;
28988;SDS011;16089;59.952;10.818;2023-08-06T10:43:29;4.82;;;1.60;;
28988;SDS011;16089;59.952;10.818;2023-08-06T10:45:57;5.55;;;1.75;;
28988;SDS011;16089;59.952;10.818;2023-08-06T10:48:30;6.95;;;1.80;;
28988;SDS011;16089;59.952;10.818;2023-08-06T10:50:58;3.75;;;1.65;;
28988;SDS011;16089;59.952;10.818;2023-08-06T10:53:25;4.47;;;1.40;;
28988;SDS011;16089;59.952;10.818;2023-08-06T10:55:51;5.85;;;1.60;;
28988;SDS011;16089;59.952;10.818;2023-08-06T10:58:18;5.70;;;1.70;;
28988;SDS011;16089;59.952;10.818;2023-08-06T11:00:44;6.70;;;1.95;;
28988;SDS011;16089;59.952;10.818;2023-08-06T11:03:10;7.07;;;1.70;;
28988;SDS011;16089;59.952;10.818;2023-08-06T11:05:38;6.13;;;1.88;;
28988;SDS011;16089;59.952;10.818;2023-08-06T11:08:05;4.93;;;1.88;;
28988;SDS011;16089;59.952;10.818;2023-08-06T11:10:32;5.07;;;1.70;;
28988;SDS011;16089;59.952;10.818;2023-08-06T11:13:00;3.47;;;1.55;;
28988;SDS011;16089;59.952;10.818;2023-08-06T11:15:26;5.35;;;1.88;;
28988;SDS011;16089;59.952;10.818;2023-08-06T11:17:53;9.70;;;1.92;;
28988;SDS011;16089;59.952;10.818;2023-08-06T11:20:19;6.53;;;1.65;;
28988;SDS011;16089;59.952;10.818;2023-08-06T11:22:48;5.63;;;1.58;;
28988;SDS011;16089;59.952;10.818;2023-08-06T11:25:14;6.50;;;1.88;;
28988;SDS011;16089;59.952;10.818;2023-08-06T11:27:40;5.93;;;1.90;;
28988;SDS011;16089;59.952;10.818;2023-08-06T11:30:07;5.93;;;1.80;;
28988;SDS011;16089;59.952;10.818;2023-08-06T11:32:33;6.22;;;1.85;;
28988;SDS011;16089;59.952;10.818;2023-08-06T11:35:10;6.85;;;1.80;;
28988;SDS011;16089;59.952;10.818;2023-08-06T11:37:37;7.05;;;1.92;;
28988;SDS011;16089;59.952;10.818;2023-08-06T11:40:07;6.72;;;1.77;;
28988;SDS011;16089;59.952;10.818;2023-08-06T11:42:36;8.75;;;1.90;;
28988;SDS011;16089;59.952;10.818;2023-08-06T11:45:02;5.05;;;1.65;;
28988;SDS011;16089;59.952;10.818;2023-08-06T11:47:29;6.72;;;1.80;;
28988;SDS011;16089;59.952;10.818;2023-08-06T11:49:55;7.82;;;1.70;;
28988;SDS011;16089;59.952;10.818;2023-08-06T11:52:22;6.63;;;1.75;;
28988;SDS011;16089;59.952;10.818;2023-08-06T11:54:59;5.93;;;1.65;;
28988;SDS011;16089;59.952;10.818;2023-08-06T11:57:30;7.13;;;1.75;;
28988;SDS011;16089;59.952;10.818;2023-08-06T12:00:01;6.75;;;1.60;;
28988;SDS011;16089;59.952;10.818;2023-08-06T12:02:30;6.15;;;1.40;;
28988;SDS011;16089;59.952;10.818;2023-08-06T12:04:59;5.53;;;1.40;;
28988;SDS011;16089;59.952;10.818;2023-08-06T12:07:26;4.10;;;1.52;;
28988;SDS011;16089;59.952;10.818;2023-08-06T12:09:52;6.28;;;1.83;;
28988;SDS011;16089;59.952;10.818;2023-08-06T12:12:19;5.40;;;1.65;;
28988;SDS011;16089;59.952;10.818;2023-08-06T12:14:46;5.40;;;1.70;;
28988;SDS011;16089;59.952;10.818;2023-08-06T12:17:13;5.40;;;1.63;;
28988;SDS011;16089;59.952;10.818;2023-08-06T12:19:39;7.45;;;2.00;;
28988;SDS011;16089;59.952;10.818;2023-08-06T12:22:05;5.63;;;1.67;;
28988;SDS011;16089;59.952;10.818;2023-08-06T12:24:32;8.18;;;1.95;;
28988;SDS011;16089;59.952;10.818;2023-08-06T12:26:58;4.80;;;1.70;;
28988;SDS011;16089;59.952;10.818;2023-08-06T12:29:24;5.13;;;1.80;;
28988;SDS011;16089;59.952;10.818;2023-08-06T12:31:52;7.60;;;1.85;;
28988;SDS011;16089;59.952;10.818;2023-08-06T12:34:18;7.15;;;1.95;;
28988;SDS011;16089;59.952;10.818;2023-08-06T12:36:45;5.90;;;1.63;;
28988;SDS011;16089;59.952;10.818;2023-08-06T12:39:11;4.82;;;1.70;;
28988;SDS011;16089;59.952;10.818;2023-08-06T12:41:38;5.80;;;1.80;;
28988;SDS011;16089;59.952;10.818;2023-08-06T12:44:04;7.80;;;2.03;;
28988;SDS011;16089;59.952;10.818;2023-08-06T12:46:31;5.00;;;1.95;;
28988;SDS011;16089;59.952;10.818;2023-08-06T12:48:58;5.53;;;2.40;;
28988;SDS011;16089;59.952;10.818;2023-08-06T12:51:25;6.18;;;1.90;;
28988;SDS011;16089;59.952;10.818;2023-08-06T12:53:51;8.43;;;2.42;;
28988;SDS011;16089;59.952;10.818;2023-08-06T12:56:17;9.38;;;2.17;;
28988;SDS011;16089;59.952;10.818;2023-08-06T12:58:43;7.43;;;2.05;;
28988;SDS011;16089;59.952;10.818;2023-08-06T13:01:10;6.40;;;2.05;;
28988;SDS011;16089;59.952;10.818;2023-08-06T13:03:36;6.53;;;2.00;;
28988;SDS011;16089;59.952;10.818;2023-08-06T13:06:04;4.32;;;1.67;;
28988;SDS011;16089;59.952;10.818;2023-08-06T13:08:30;7.55;;;2.08;;
28988;SDS011;16089;59.952;10.818;2023-08-06T13:10:57;5.30;;;1.88;;
28988;SDS011;16089;59.952;10.818;2023-08-06T13:13:23;5.05;;;2.00;;
28988;SDS011;16089;59.952;10.818;2023-08-06T13:15:51;8.73;;;2.30;;
28988;SDS011;16089;59.952;10.818;2023-08-06T13:18:18;6.40;;;2.10;;
28988;SDS011;16089;59.952;10.818;2023-08-06T13:20:44;9.40;;;2.28;;
28988;SDS011;16089;59.952;10.818;2023-08-06T13:23:13;8.60;;;2.20;;
28988;SDS011;16089;59.952;10.818;2023-08-06T13:25:41;7.47;;;2.30;;
28988;SDS011;16089;59.952;10.818;2023-08-06T13:28:08;7.65;;;2.10;;
28988;SDS011;16089;59.952;10.818;2023-08-06T13:30:34;5.85;;;2.17;;
28988;SDS011;16089;59.952;10.818;2023-08-06T13:33:06;5.68;;;2.10;;
28988;SDS011;16089;59.952;10.818;2023-08-06T13:35:33;4.72;;;2.20;;
28988;SDS011;16089;59.952;10.818;2023-08-06T13:37:59;5.50;;;2.00;;
28988;SDS011;16089;59.952;10.818;2023-08-06T13:40:29;7.68;;;2.30;;
28988;SDS011;16089;59.952;10.818;2023-08-06T13:42:56;8.13;;;2.15;;
28988;SDS011;16089;59.952;10.818;2023-08-06T13:45:22;7.50;;;2.38;;
28988;SDS011;16089;59.952;10.818;2023-08-06T13:47:48;6.63;;;2.30;;
28988;SDS011;16089;59.952;10.818;2023-08-06T13:50:15;6.25;;;2.42;;
28988;SDS011;16089;59.952;10.818;2023-08-06T13:52:41;7.10;;;2.50;;
28988;SDS011;16089;59.952;10.818;2023-08-06T13:55:08;8.20;;;2.58;;
28988;SDS011;16089;59.952;10.818;2023-08-06T13:57:35;7.18;;;2.15;;
28988;SDS011;16089;59.952;10.818;2023-08-06T14:00:02;6.05;;;2.20;;
28988;SDS011;16089;59.952;10.818;2023-08-06T14:02:29;5.07;;;2.40;;
28988;SDS011;16089;59.952;10.818;2023-08-06T14:04:55;5.90;;;2.38;;
28988;SDS011;16089;59.952;10.818;2023-08-06T14:07:21;4.90;;;2.40;;
28988;SDS011;16089;59.952;10.818;2023-08-06T14:09:48;4.57;;;2.10;;
28988;SDS011;16089;59.952;10.818;2023-08-06T14:12:14;5.63;;;2.40;;
28988;SDS011;16089;59.952;10.818;2023-08-06T14:14:42;9.18;;;2.13;;
28988;SDS011;16089;59.952;10.818;2023-08-06T14:17:08;7.50;;;2.40;;
28988;SDS011;16089;59.952;10.818;2023-08-06T14:19:34;4.15;;;2.10;;
28988;SDS011;16089;59.952;10.818;2023-08-06T14:22:01;7.25;;;2.55;;
28988;SDS011;16089;59.952;10.818;2023-08-06T14:24:27;8.55;;;2.28;;
28988;SDS011;16089;59.952;10.818;2023-08-06T14:26:53;5.93;;;2.60;;
28988;SDS011;16089;59.952;10.818;2023-08-06T14:29:20;4.90;;;2.30;;